sensor_id;sensor_type;location;lat;lon;timestamp;P1;durP1;ratioP1;P2;durP2;ratioP2
80159;SDS011;69486;59.082;37.928;2023-12-20T00:02:19;1.90;;;1.80;;
80159;SDS011;69486;59.082;37.928;2023-12-20T00:04:44;1.27;;;1.27;;
80159;SDS011;69486;59.082;37.928;2023-12-20T00:07:10;1.50;;;1.40;;
80159;SDS011;69486;59.082;37.928;2023-12-20T00:09:37;1.55;;;1.55;;
80159;SDS011;69486;59.082;37.928;2023-12-20T00:12:02;1.52;;;1.52;;
80159;SDS011;69486;59.082;37.928;2023-12-20T00:14:28;1.70;;;1.60;;
80159;SDS011;69486;59.082;37.928;2023-12-20T00:16:53;1.50;;;1.40;;
80159;SDS011;69486;59.082;37.928;2023-12-20T00:19:19;1.60;;;1.50;;
80159;SDS011;69486;59.082;37.928;2023-12-20T00:21:45;1.33;;;1.33;;
80159;SDS011;69486;59.082;37.928;2023-12-20T00:24:10;2.95;;;1.30;;
80159;SDS011;69486;59.082;37.928;2023-12-20T00:26:36;1.40;;;1.40;;
80159;SDS011;69486;59.082;37.928;2023-12-20T00:29:02;1.52;;;1.52;;
80159;SDS011;69486;59.082;37.928;2023-12-20T00:31:28;1.50;;;1.40;;
80159;SDS011;69486;59.082;37.928;2023-12-20T00:33:53;1.70;;;1.60;;
80159;SDS011;69486;59.082;37.928;2023-12-20T00:36:19;1.48;;;1.48;;
80159;SDS011;69486;59.082;37.928;2023-12-20T00:38:45;1.52;;;1.52;;
80159;SDS011;69486;59.082;37.928;2023-12-20T00:41:11;1.55;;;1.45;;
80159;SDS011;69486;59.082;37.928;2023-12-20T00:43:36;1.50;;;1.50;;
80159;SDS011;69486;59.082;37.928;2023-12-20T00:46:02;1.50;;;1.45;;
80159;SDS011;69486;59.082;37.928;2023-12-20T00:48:28;1.52;;;1.42;;
80159;SDS011;69486;59.082;37.928;2023-12-20T00:50:55;1.33;;;1.30;;
80159;SDS011;69486;59.082;37.928;2023-12-20T00:53:21;1.80;;;1.70;;
80159;SDS011;69486;59.082;37.928;2023-12-20T00:55:46;1.67;;;1.58;;
80159;SDS011;69486;59.082;37.928;2023-12-20T00:58:12;1.40;;;1.30;;
80159;SDS011;69486;59.082;37.928;2023-12-20T01:00:40;2.83;;;1.40;;
80159;SDS011;69486;59.082;37.928;2023-12-20T01:03:07;1.40;;;1.40;;
80159;SDS011;69486;59.082;37.928;2023-12-20T01:05:33;1.52;;;1.38;;
80159;SDS011;69486;59.082;37.928;2023-12-20T01:07:59;1.60;;;1.50;;
80159;SDS011;69486;59.082;37.928;2023-12-20T01:10:25;1.70;;;1.60;;
80159;SDS011;69486;59.082;37.928;2023-12-20T01:12:53;1.38;;;1.27;;
80159;SDS011;69486;59.082;37.928;2023-12-20T01:15:19;1.88;;;1.50;;
80159;SDS011;69486;59.082;37.928;2023-12-20T01:17:44;1.30;;;1.30;;
80159;SDS011;69486;59.082;37.928;2023-12-20T01:20:10;1.55;;;1.45;;
80159;SDS011;69486;59.082;37.928;2023-12-20T01:22:36;1.38;;;1.38;;
80159;SDS011;69486;59.082;37.928;2023-12-20T01:25:01;2.10;;;1.65;;
80159;SDS011;69486;59.082;37.928;2023-12-20T01:27:28;1.55;;;1.45;;
80159;SDS011;69486;59.082;37.928;2023-12-20T01:29:54;1.30;;;1.30;;
80159;SDS011;69486;59.082;37.928;2023-12-20T01:32:19;1.40;;;1.40;;
80159;SDS011;69486;59.082;37.928;2023-12-20T01:34:45;1.50;;;1.50;;
80159;SDS011;69486;59.082;37.928;2023-12-20T01:37:10;1.40;;;1.40;;
80159;SDS011;69486;59.082;37.928;2023-12-20T01:39:36;1.40;;;1.40;;
80159;SDS011;69486;59.082;37.928;2023-12-20T01:42:02;1.75;;;1.65;;
80159;SDS011;69486;59.082;37.928;2023-12-20T01:44:27;1.48;;;1.48;;
80159;SDS011;69486;59.082;37.928;2023-12-20T01:46:53;1.88;;;1.75;;
80159;SDS011;69486;59.082;37.928;2023-12-20T01:49:19;1.67;;;1.65;;
80159;SDS011;69486;59.082;37.928;2023-12-20T01:51:45;1.50;;;1.50;;
80159;SDS011;69486;59.082;37.928;2023-12-20T01:54:10;1.45;;;1.45;;
80159;SDS011;69486;59.082;37.928;2023-12-20T01:56:36;1.38;;;1.30;;
80159;SDS011;69486;59.082;37.928;2023-12-20T01:59:02;1.67;;;1.67;;
80159;SDS011;69486;59.082;37.928;2023-12-20T02:01:29;1.40;;;1.40;;
80159;SDS011;69486;59.082;37.928;2023-12-20T02:03:55;1.42;;;1.42;;
80159;SDS011;69486;59.082;37.928;2023-12-20T02:06:22;1.63;;;1.52;;
80159;SDS011;69486;59.082;37.928;2023-12-20T02:08:49;1.83;;;1.73;;
80159;SDS011;69486;59.082;37.928;2023-12-20T02:11:15;1.85;;;1.70;;
80159;SDS011;69486;59.082;37.928;2023-12-20T02:13:41;1.30;;;1.30;;
80159;SDS011;69486;59.082;37.928;2023-12-20T02:16:07;1.52;;;1.52;;
80159;SDS011;69486;59.082;37.928;2023-12-20T02:18:33;1.45;;;1.42;;
80159;SDS011;69486;59.082;37.928;2023-12-20T02:20:59;1.70;;;1.60;;
80159;SDS011;69486;59.082;37.928;2023-12-20T02:23:24;1.70;;;1.70;;
80159;SDS011;69486;59.082;37.928;2023-12-20T02:25:50;1.92;;;1.80;;
80159;SDS011;69486;59.082;37.928;2023-12-20T02:28:16;1.80;;;1.70;;
80159;SDS011;69486;59.082;37.928;2023-12-20T02:30:42;2.10;;;1.88;;
80159;SDS011;69486;59.082;37.928;2023-12-20T02:33:08;2.15;;;1.67;;
80159;SDS011;69486;59.082;37.928;2023-12-20T02:35:36;1.85;;;1.75;;
80159;SDS011;69486;59.082;37.928;2023-12-20T02:38:02;2.35;;;1.70;;
80159;SDS011;69486;59.082;37.928;2023-12-20T02:40:28;1.98;;;1.88;;
80159;SDS011;69486;59.082;37.928;2023-12-20T02:42:53;3.63;;;2.00;;
80159;SDS011;69486;59.082;37.928;2023-12-20T02:45:19;1.70;;;1.70;;
80159;SDS011;69486;59.082;37.928;2023-12-20T02:47:45;1.77;;;1.73;;
80159;SDS011;69486;59.082;37.928;2023-12-20T02:50:10;1.65;;;1.55;;
80159;SDS011;69486;59.082;37.928;2023-12-20T02:52:36;2.25;;;1.63;;
80159;SDS011;69486;59.082;37.928;2023-12-20T02:55:01;1.80;;;1.70;;
80159;SDS011;69486;59.082;37.928;2023-12-20T02:57:27;2.05;;;1.55;;
80159;SDS011;69486;59.082;37.928;2023-12-20T02:59:53;1.70;;;1.60;;
80159;SDS011;69486;59.082;37.928;2023-12-20T03:02:18;1.50;;;1.40;;
80159;SDS011;69486;59.082;37.928;2023-12-20T03:04:44;2.00;;;1.90;;
80159;SDS011;69486;59.082;37.928;2023-12-20T03:07:11;1.85;;;1.75;;
80159;SDS011;69486;59.082;37.928;2023-12-20T03:09:37;1.83;;;1.73;;
80159;SDS011;69486;59.082;37.928;2023-12-20T03:12:03;2.00;;;1.80;;
80159;SDS011;69486;59.082;37.928;2023-12-20T03:14:29;1.98;;;1.88;;
80159;SDS011;69486;59.082;37.928;2023-12-20T03:16:55;3.08;;;2.30;;
80159;SDS011;69486;59.082;37.928;2023-12-20T03:19:21;1.77;;;1.77;;
80159;SDS011;69486;59.082;37.928;2023-12-20T03:21:47;1.77;;;1.67;;
80159;SDS011;69486;59.082;37.928;2023-12-20T03:24:12;2.83;;;2.15;;
80159;SDS011;69486;59.082;37.928;2023-12-20T03:26:38;3.60;;;1.63;;
80159;SDS011;69486;59.082;37.928;2023-12-20T03:29:03;2.15;;;2.05;;
80159;SDS011;69486;59.082;37.928;2023-12-20T03:31:29;2.35;;;2.15;;
80159;SDS011;69486;59.082;37.928;2023-12-20T03:33:55;2.00;;;1.90;;
80159;SDS011;69486;59.082;37.928;2023-12-20T03:36:20;2.08;;;1.98;;
80159;SDS011;69486;59.082;37.928;2023-12-20T03:38:46;2.25;;;2.13;;
80159;SDS011;69486;59.082;37.928;2023-12-20T03:41:12;1.98;;;1.88;;
80159;SDS011;69486;59.082;37.928;2023-12-20T03:43:38;2.03;;;1.92;;
80159;SDS011;69486;59.082;37.928;2023-12-20T03:46:04;2.40;;;2.20;;
80159;SDS011;69486;59.082;37.928;2023-12-20T03:48:32;2.20;;;2.10;;
80159;SDS011;69486;59.082;37.928;2023-12-20T03:50:58;2.13;;;2.03;;
80159;SDS011;69486;59.082;37.928;2023-12-20T03:53:23;2.35;;;2.20;;
80159;SDS011;69486;59.082;37.928;2023-12-20T03:55:49;1.70;;;1.60;;
80159;SDS011;69486;59.082;37.928;2023-12-20T03:58:15;2.55;;;2.35;;
80159;SDS011;69486;59.082;37.928;2023-12-20T04:00:40;1.90;;;1.80;;
80159;SDS011;69486;59.082;37.928;2023-12-20T04:03:06;2.28;;;2.17;;
80159;SDS011;69486;59.082;37.928;2023-12-20T04:05:32;2.10;;;2.00;;
80159;SDS011;69486;59.082;37.928;2023-12-20T04:07:59;1.60;;;1.60;;
80159;SDS011;69486;59.082;37.928;2023-12-20T04:10:26;2.20;;;2.10;;
80159;SDS011;69486;59.082;37.928;2023-12-20T04:12:52;2.00;;;1.90;;
80159;SDS011;69486;59.082;37.928;2023-12-20T04:15:17;3.30;;;3.00;;
80159;SDS011;69486;59.082;37.928;2023-12-20T04:17:43;2.20;;;2.10;;
80159;SDS011;69486;59.082;37.928;2023-12-20T04:20:09;2.15;;;2.13;;
80159;SDS011;69486;59.082;37.928;2023-12-20T04:22:34;2.17;;;2.08;;
80159;SDS011;69486;59.082;37.928;2023-12-20T04:25:00;2.45;;;2.25;;
80159;SDS011;69486;59.082;37.928;2023-12-20T04:27:25;2.45;;;2.30;;
80159;SDS011;69486;59.082;37.928;2023-12-20T04:29:51;3.03;;;2.83;;
80159;SDS011;69486;59.082;37.928;2023-12-20T04:32:17;2.08;;;1.98;;
80159;SDS011;69486;59.082;37.928;2023-12-20T04:34:42;2.15;;;2.05;;
80159;SDS011;69486;59.082;37.928;2023-12-20T04:37:08;2.63;;;2.53;;
80159;SDS011;69486;59.082;37.928;2023-12-20T04:39:33;2.13;;;2.03;;
80159;SDS011;69486;59.082;37.928;2023-12-20T04:42:08;2.30;;;2.20;;
80159;SDS011;69486;59.082;37.928;2023-12-20T04:44:35;3.15;;;2.28;;
80159;SDS011;69486;59.082;37.928;2023-12-20T04:47:00;1.85;;;1.75;;
80159;SDS011;69486;59.082;37.928;2023-12-20T04:49:26;2.00;;;1.90;;
80159;SDS011;69486;59.082;37.928;2023-12-20T04:51:52;2.08;;;1.98;;
80159;SDS011;69486;59.082;37.928;2023-12-20T04:54:17;2.15;;;1.80;;
80159;SDS011;69486;59.082;37.928;2023-12-20T04:56:43;2.53;;;2.42;;
80159;SDS011;69486;59.082;37.928;2023-12-20T04:59:09;2.58;;;2.38;;
80159;SDS011;69486;59.082;37.928;2023-12-20T05:01:34;2.05;;;1.95;;
80159;SDS011;69486;59.082;37.928;2023-12-20T05:04:00;1.88;;;1.88;;
80159;SDS011;69486;59.082;37.928;2023-12-20T05:06:26;2.08;;;1.70;;
80159;SDS011;69486;59.082;37.928;2023-12-20T05:08:52;2.13;;;2.03;;
80159;SDS011;69486;59.082;37.928;2023-12-20T05:11:17;2.40;;;2.28;;
80159;SDS011;69486;59.082;37.928;2023-12-20T05:13:43;2.20;;;2.10;;
80159;SDS011;69486;59.082;37.928;2023-12-20T05:16:09;3.38;;;2.25;;
80159;SDS011;69486;59.082;37.928;2023-12-20T05:18:34;2.03;;;1.92;;
80159;SDS011;69486;59.082;37.928;2023-12-20T05:21:00;2.33;;;2.10;;
80159;SDS011;69486;59.082;37.928;2023-12-20T05:23:26;2.22;;;2.13;;
80159;SDS011;69486;59.082;37.928;2023-12-20T05:25:51;2.58;;;2.45;;
80159;SDS011;69486;59.082;37.928;2023-12-20T05:28:17;2.53;;;2.33;;
80159;SDS011;69486;59.082;37.928;2023-12-20T05:30:43;2.35;;;2.17;;
80159;SDS011;69486;59.082;37.928;2023-12-20T05:33:08;2.03;;;1.92;;
80159;SDS011;69486;59.082;37.928;2023-12-20T05:35:34;2.45;;;2.25;;
80159;SDS011;69486;59.082;37.928;2023-12-20T05:38:00;2.30;;;2.10;;
80159;SDS011;69486;59.082;37.928;2023-12-20T05:40:25;2.42;;;2.30;;
80159;SDS011;69486;59.082;37.928;2023-12-20T05:42:51;2.13;;;2.03;;
80159;SDS011;69486;59.082;37.928;2023-12-20T05:45:17;2.03;;;1.92;;
80159;SDS011;69486;59.082;37.928;2023-12-20T05:47:42;2.13;;;1.83;;
80159;SDS011;69486;59.082;37.928;2023-12-20T05:50:08;2.67;;;2.47;;
80159;SDS011;69486;59.082;37.928;2023-12-20T05:52:34;1.95;;;1.85;;
80159;SDS011;69486;59.082;37.928;2023-12-20T05:55:00;2.25;;;2.15;;
80159;SDS011;69486;59.082;37.928;2023-12-20T05:57:27;2.22;;;2.03;;
80159;SDS011;69486;59.082;37.928;2023-12-20T05:59:52;2.97;;;2.42;;
80159;SDS011;69486;59.082;37.928;2023-12-20T06:02:18;4.20;;;2.33;;
80159;SDS011;69486;59.082;37.928;2023-12-20T06:04:44;2.25;;;2.15;;
80159;SDS011;69486;59.082;37.928;2023-12-20T06:07:13;2.30;;;2.15;;
80159;SDS011;69486;59.082;37.928;2023-12-20T06:09:39;2.15;;;1.95;;
80159;SDS011;69486;59.082;37.928;2023-12-20T06:12:05;2.70;;;2.28;;
80159;SDS011;69486;59.082;37.928;2023-12-20T06:14:31;2.22;;;2.10;;
80159;SDS011;69486;59.082;37.928;2023-12-20T06:16:57;2.45;;;2.35;;
80159;SDS011;69486;59.082;37.928;2023-12-20T06:19:22;2.05;;;1.95;;
80159;SDS011;69486;59.082;37.928;2023-12-20T06:21:48;2.40;;;2.25;;
80159;SDS011;69486;59.082;37.928;2023-12-20T06:24:14;2.75;;;2.13;;
80159;SDS011;69486;59.082;37.928;2023-12-20T06:26:39;2.30;;;2.20;;
80159;SDS011;69486;59.082;37.928;2023-12-20T06:29:05;3.05;;;2.85;;
80159;SDS011;69486;59.082;37.928;2023-12-20T06:31:31;4.95;;;2.33;;
80159;SDS011;69486;59.082;37.928;2023-12-20T06:33:58;2.00;;;1.90;;
80159;SDS011;69486;59.082;37.928;2023-12-20T06:36:25;2.63;;;2.42;;
80159;SDS011;69486;59.082;37.928;2023-12-20T06:38:51;2.10;;;2.00;;
80159;SDS011;69486;59.082;37.928;2023-12-20T06:41:17;2.20;;;2.00;;
80159;SDS011;69486;59.082;37.928;2023-12-20T06:43:42;2.20;;;2.10;;
80159;SDS011;69486;59.082;37.928;2023-12-20T06:46:08;5.93;;;2.38;;
80159;SDS011;69486;59.082;37.928;2023-12-20T06:48:34;2.83;;;2.63;;
80159;SDS011;69486;59.082;37.928;2023-12-20T06:51:00;2.45;;;2.25;;
80159;SDS011;69486;59.082;37.928;2023-12-20T06:53:27;2.30;;;2.03;;
80159;SDS011;69486;59.082;37.928;2023-12-20T06:55:53;2.40;;;2.30;;
80159;SDS011;69486;59.082;37.928;2023-12-20T06:58:18;2.60;;;2.50;;
80159;SDS011;69486;59.082;37.928;2023-12-20T07:00:44;2.70;;;2.60;;
80159;SDS011;69486;59.082;37.928;2023-12-20T07:03:10;2.88;;;2.67;;
80159;SDS011;69486;59.082;37.928;2023-12-20T07:05:35;2.10;;;2.00;;
80159;SDS011;69486;59.082;37.928;2023-12-20T07:08:01;2.63;;;2.40;;
80159;SDS011;69486;59.082;37.928;2023-12-20T07:10:27;2.70;;;2.50;;
80159;SDS011;69486;59.082;37.928;2023-12-20T07:12:53;3.50;;;2.75;;
80159;SDS011;69486;59.082;37.928;2023-12-20T07:15:20;2.38;;;2.25;;
80159;SDS011;69486;59.082;37.928;2023-12-20T07:17:46;3.20;;;2.72;;
80159;SDS011;69486;59.082;37.928;2023-12-20T07:20:12;2.58;;;2.20;;
80159;SDS011;69486;59.082;37.928;2023-12-20T07:22:37;3.28;;;2.97;;
80159;SDS011;69486;59.082;37.928;2023-12-20T07:25:03;4.40;;;2.35;;
80159;SDS011;69486;59.082;37.928;2023-12-20T07:27:29;3.03;;;2.75;;
80159;SDS011;69486;59.082;37.928;2023-12-20T07:29:54;2.78;;;2.58;;
80159;SDS011;69486;59.082;37.928;2023-12-20T07:32:20;2.35;;;2.25;;
80159;SDS011;69486;59.082;37.928;2023-12-20T07:34:45;2.20;;;2.10;;
80159;SDS011;69486;59.082;37.928;2023-12-20T07:37:11;4.50;;;1.90;;
80159;SDS011;69486;59.082;37.928;2023-12-20T07:39:40;2.70;;;2.50;;
80159;SDS011;69486;59.082;37.928;2023-12-20T07:42:06;2.63;;;2.42;;
80159;SDS011;69486;59.082;37.928;2023-12-20T07:44:32;2.28;;;2.17;;
80159;SDS011;69486;59.082;37.928;2023-12-20T07:46:57;2.90;;;2.45;;
80159;SDS011;69486;59.082;37.928;2023-12-20T07:49:23;2.40;;;2.20;;
80159;SDS011;69486;59.082;37.928;2023-12-20T07:51:49;2.50;;;2.40;;
80159;SDS011;69486;59.082;37.928;2023-12-20T07:54:15;2.88;;;2.67;;
80159;SDS011;69486;59.082;37.928;2023-12-20T07:56:41;3.22;;;2.58;;
80159;SDS011;69486;59.082;37.928;2023-12-20T07:59:07;2.03;;;1.92;;
80159;SDS011;69486;59.082;37.928;2023-12-20T08:01:32;2.10;;;1.98;;
80159;SDS011;69486;59.082;37.928;2023-12-20T08:03:58;2.70;;;2.50;;
80159;SDS011;69486;59.082;37.928;2023-12-20T08:06:24;4.40;;;2.08;;
80159;SDS011;69486;59.082;37.928;2023-12-20T08:08:49;2.42;;;2.33;;
80159;SDS011;69486;59.082;37.928;2023-12-20T08:11:15;2.30;;;2.20;;
80159;SDS011;69486;59.082;37.928;2023-12-20T08:13:41;2.10;;;2.00;;
80159;SDS011;69486;59.082;37.928;2023-12-20T08:16:07;2.58;;;2.38;;
80159;SDS011;69486;59.082;37.928;2023-12-20T08:18:33;5.35;;;2.10;;
80159;SDS011;69486;59.082;37.928;2023-12-20T08:20:59;2.10;;;1.92;;
80159;SDS011;69486;59.082;37.928;2023-12-20T08:23:25;1.75;;;1.65;;
80159;SDS011;69486;59.082;37.928;2023-12-20T08:25:51;2.22;;;2.05;;
80159;SDS011;69486;59.082;37.928;2023-12-20T08:28:16;2.38;;;2.10;;
80159;SDS011;69486;59.082;37.928;2023-12-20T08:30:42;1.85;;;1.75;;
80159;SDS011;69486;59.082;37.928;2023-12-20T08:33:07;3.28;;;3.00;;
80159;SDS011;69486;59.082;37.928;2023-12-20T08:35:38;2.30;;;2.20;;
80159;SDS011;69486;59.082;37.928;2023-12-20T08:38:04;2.53;;;2.30;;
80159;SDS011;69486;59.082;37.928;2023-12-20T08:40:29;2.83;;;2.25;;
80159;SDS011;69486;59.082;37.928;2023-12-20T08:42:55;2.50;;;2.35;;
80159;SDS011;69486;59.082;37.928;2023-12-20T08:45:21;2.60;;;2.50;;
80159;SDS011;69486;59.082;37.928;2023-12-20T08:47:46;2.75;;;2.65;;
80159;SDS011;69486;59.082;37.928;2023-12-20T08:50:12;2.50;;;2.30;;
80159;SDS011;69486;59.082;37.928;2023-12-20T08:52:38;2.38;;;2.28;;
80159;SDS011;69486;59.082;37.928;2023-12-20T08:55:03;2.42;;;2.33;;
80159;SDS011;69486;59.082;37.928;2023-12-20T08:57:29;2.28;;;2.17;;
80159;SDS011;69486;59.082;37.928;2023-12-20T08:59:57;2.78;;;2.03;;
80159;SDS011;69486;59.082;37.928;2023-12-20T09:02:22;2.22;;;2.10;;
80159;SDS011;69486;59.082;37.928;2023-12-20T09:04:48;3.08;;;2.30;;
80159;SDS011;69486;59.082;37.928;2023-12-20T09:07:24;2.50;;;2.40;;
80159;SDS011;69486;59.082;37.928;2023-12-20T09:09:50;2.88;;;2.67;;
80159;SDS011;69486;59.082;37.928;2023-12-20T09:12:17;2.10;;;2.00;;
80159;SDS011;69486;59.082;37.928;2023-12-20T09:14:42;2.33;;;2.22;;
80159;SDS011;69486;59.082;37.928;2023-12-20T09:17:08;2.28;;;2.00;;
80159;SDS011;69486;59.082;37.928;2023-12-20T09:19:36;2.35;;;2.17;;
80159;SDS011;69486;59.082;37.928;2023-12-20T09:22:02;3.90;;;2.13;;
80159;SDS011;69486;59.082;37.928;2023-12-20T09:24:28;1.77;;;1.67;;
80159;SDS011;69486;59.082;37.928;2023-12-20T09:26:53;2.00;;;1.90;;
80159;SDS011;69486;59.082;37.928;2023-12-20T09:29:19;1.85;;;1.75;;
80159;SDS011;69486;59.082;37.928;2023-12-20T09:31:45;2.53;;;2.05;;
80159;SDS011;69486;59.082;37.928;2023-12-20T09:34:11;2.85;;;2.20;;
80159;SDS011;69486;59.082;37.928;2023-12-20T09:36:37;2.40;;;2.20;;
80159;SDS011;69486;59.082;37.928;2023-12-20T09:39:06;1.50;;;1.40;;
80159;SDS011;69486;59.082;37.928;2023-12-20T09:41:31;1.83;;;1.73;;
80159;SDS011;69486;59.082;37.928;2023-12-20T09:44:01;2.25;;;2.05;;
80159;SDS011;69486;59.082;37.928;2023-12-20T09:46:28;3.15;;;2.60;;
80159;SDS011;69486;59.082;37.928;2023-12-20T09:48:55;2.80;;;2.35;;
80159;SDS011;69486;59.082;37.928;2023-12-20T09:51:20;7.15;;;4.82;;
80159;SDS011;69486;59.082;37.928;2023-12-20T09:53:46;3.10;;;2.80;;
80159;SDS011;69486;59.082;37.928;2023-12-20T09:56:12;2.38;;;2.05;;
80159;SDS011;69486;59.082;37.928;2023-12-20T09:58:38;2.22;;;2.13;;
80159;SDS011;69486;59.082;37.928;2023-12-20T10:01:05;3.17;;;1.85;;
80159;SDS011;69486;59.082;37.928;2023-12-20T10:03:30;2.05;;;1.95;;
80159;SDS011;69486;59.082;37.928;2023-12-20T10:05:56;2.47;;;2.28;;
80159;SDS011;69486;59.082;37.928;2023-12-20T10:08:24;2.25;;;2.08;;
80159;SDS011;69486;59.082;37.928;2023-12-20T10:10:49;2.47;;;2.30;;
80159;SDS011;69486;59.082;37.928;2023-12-20T10:13:15;2.40;;;2.20;;
80159;SDS011;69486;59.082;37.928;2023-12-20T10:15:41;2.30;;;2.20;;
80159;SDS011;69486;59.082;37.928;2023-12-20T10:18:06;1.90;;;1.80;;
80159;SDS011;69486;59.082;37.928;2023-12-20T10:20:32;2.17;;;2.00;;
80159;SDS011;69486;59.082;37.928;2023-12-20T10:22:59;2.10;;;2.00;;
80159;SDS011;69486;59.082;37.928;2023-12-20T10:25:24;2.70;;;2.50;;
80159;SDS011;69486;59.082;37.928;2023-12-20T10:27:50;2.13;;;2.03;;
80159;SDS011;69486;59.082;37.928;2023-12-20T10:30:33;1.85;;;1.75;;
80159;SDS011;69486;59.082;37.928;2023-12-20T10:32:59;2.20;;;2.10;;
80159;SDS011;69486;59.082;37.928;2023-12-20T10:35:25;2.08;;;1.95;;
80159;SDS011;69486;59.082;37.928;2023-12-20T10:37:52;2.17;;;2.08;;
80159;SDS011;69486;59.082;37.928;2023-12-20T10:40:20;2.42;;;2.22;;
80159;SDS011;69486;59.082;37.928;2023-12-20T10:42:46;2.80;;;2.60;;
80159;SDS011;69486;59.082;37.928;2023-12-20T10:45:12;2.88;;;2.53;;
80159;SDS011;69486;59.082;37.928;2023-12-20T10:47:38;2.65;;;2.47;;
80159;SDS011;69486;59.082;37.928;2023-12-20T10:50:05;2.55;;;2.38;;
80159;SDS011;69486;59.082;37.928;2023-12-20T10:52:31;3.00;;;2.80;;
80159;SDS011;69486;59.082;37.928;2023-12-20T10:54:57;3.80;;;2.47;;
80159;SDS011;69486;59.082;37.928;2023-12-20T10:57:23;4.10;;;2.50;;
80159;SDS011;69486;59.082;37.928;2023-12-20T10:59:51;1.92;;;1.83;;
80159;SDS011;69486;59.082;37.928;2023-12-20T11:02:19;2.70;;;2.30;;
80159;SDS011;69486;59.082;37.928;2023-12-20T11:09:44;2.38;;;2.22;;
80159;SDS011;69486;59.082;37.928;2023-12-20T11:14:47;2.60;;;2.40;;
80159;SDS011;69486;59.082;37.928;2023-12-20T11:17:14;2.30;;;2.20;;
80159;SDS011;69486;59.082;37.928;2023-12-20T11:22:26;2.25;;;2.15;;
80159;SDS011;69486;59.082;37.928;2023-12-20T11:24:52;1.98;;;1.85;;
80159;SDS011;69486;59.082;37.928;2023-12-20T11:27:18;2.30;;;2.10;;
80159;SDS011;69486;59.082;37.928;2023-12-20T11:29:51;2.70;;;2.30;;
80159;SDS011;69486;59.082;37.928;2023-12-20T11:34:58;3.90;;;2.38;;
80159;SDS011;69486;59.082;37.928;2023-12-20T11:37:36;2.55;;;2.35;;
80159;SDS011;69486;59.082;37.928;2023-12-20T11:40:03;2.90;;;2.25;;
80159;SDS011;69486;59.082;37.928;2023-12-20T11:42:33;1.95;;;1.85;;
80159;SDS011;69486;59.082;37.928;2023-12-20T11:45:03;2.10;;;1.98;;
80159;SDS011;69486;59.082;37.928;2023-12-20T11:47:29;2.38;;;2.17;;
80159;SDS011;69486;59.082;37.928;2023-12-20T11:49:55;2.47;;;2.20;;
80159;SDS011;69486;59.082;37.928;2023-12-20T11:52:21;4.88;;;2.40;;
80159;SDS011;69486;59.082;37.928;2023-12-20T11:54:47;2.97;;;2.78;;
80159;SDS011;69486;59.082;37.928;2023-12-20T11:57:13;2.25;;;2.13;;
80159;SDS011;69486;59.082;37.928;2023-12-20T11:59:39;2.83;;;1.88;;
80159;SDS011;69486;59.082;37.928;2023-12-20T12:02:04;2.50;;;2.30;;
80159;SDS011;69486;59.082;37.928;2023-12-20T12:04:30;3.33;;;2.65;;
80159;SDS011;69486;59.082;37.928;2023-12-20T12:06:56;2.55;;;2.35;;
80159;SDS011;69486;59.082;37.928;2023-12-20T12:09:22;2.70;;;2.50;;
80159;SDS011;69486;59.082;37.928;2023-12-20T12:11:48;4.85;;;2.22;;
80159;SDS011;69486;59.082;37.928;2023-12-20T12:14:13;3.15;;;2.50;;
80159;SDS011;69486;59.082;37.928;2023-12-20T12:16:41;3.53;;;2.40;;
80159;SDS011;69486;59.082;37.928;2023-12-20T12:19:07;2.53;;;2.33;;
80159;SDS011;69486;59.082;37.928;2023-12-20T12:21:32;2.63;;;2.50;;
80159;SDS011;69486;59.082;37.928;2023-12-20T12:24:08;2.47;;;2.38;;
80159;SDS011;69486;59.082;37.928;2023-12-20T12:26:34;2.65;;;2.15;;
80159;SDS011;69486;59.082;37.928;2023-12-20T12:28:59;2.50;;;2.40;;
80159;SDS011;69486;59.082;37.928;2023-12-20T12:31:25;4.13;;;2.60;;
80159;SDS011;69486;59.082;37.928;2023-12-20T12:33:52;4.43;;;2.70;;
80159;SDS011;69486;59.082;37.928;2023-12-20T12:36:17;2.35;;;1.98;;
80159;SDS011;69486;59.082;37.928;2023-12-20T12:38:43;2.25;;;1.80;;
80159;SDS011;69486;59.082;37.928;2023-12-20T12:41:09;2.25;;;1.90;;
80159;SDS011;69486;59.082;37.928;2023-12-20T12:43:36;2.65;;;2.08;;
80159;SDS011;69486;59.082;37.928;2023-12-20T12:46:01;2.22;;;2.10;;
80159;SDS011;69486;59.082;37.928;2023-12-20T12:48:27;1.90;;;1.80;;
80159;SDS011;69486;59.082;37.928;2023-12-20T12:50:53;1.90;;;1.80;;
80159;SDS011;69486;59.082;37.928;2023-12-20T12:53:19;2.20;;;2.00;;
80159;SDS011;69486;59.082;37.928;2023-12-20T12:55:45;2.53;;;1.73;;
80159;SDS011;69486;59.082;37.928;2023-12-20T12:58:11;2.00;;;1.90;;
80159;SDS011;69486;59.082;37.928;2023-12-20T13:00:36;2.50;;;2.30;;
80159;SDS011;69486;59.082;37.928;2023-12-20T13:03:02;3.25;;;2.10;;
80159;SDS011;69486;59.082;37.928;2023-12-20T13:05:28;2.08;;;1.90;;
80159;SDS011;69486;59.082;37.928;2023-12-20T13:07:54;2.85;;;2.35;;
80159;SDS011;69486;59.082;37.928;2023-12-20T13:10:20;3.70;;;2.30;;
80159;SDS011;69486;59.082;37.928;2023-12-20T13:12:46;3.17;;;1.92;;
80159;SDS011;69486;59.082;37.928;2023-12-20T13:15:12;2.63;;;2.42;;
80159;SDS011;69486;59.082;37.928;2023-12-20T13:17:37;2.88;;;2.28;;
80159;SDS011;69486;59.082;37.928;2023-12-20T13:20:03;2.20;;;2.00;;
80159;SDS011;69486;59.082;37.928;2023-12-20T13:22:29;2.17;;;2.08;;
80159;SDS011;69486;59.082;37.928;2023-12-20T13:24:54;2.00;;;1.90;;
80159;SDS011;69486;59.082;37.928;2023-12-20T13:27:20;2.45;;;1.80;;
80159;SDS011;69486;59.082;37.928;2023-12-20T13:29:45;2.35;;;1.95;;
80159;SDS011;69486;59.082;37.928;2023-12-20T13:32:11;1.88;;;1.77;;
80159;SDS011;69486;59.082;37.928;2023-12-20T13:34:36;2.70;;;2.25;;
80159;SDS011;69486;59.082;37.928;2023-12-20T13:37:02;2.17;;;2.08;;
80159;SDS011;69486;59.082;37.928;2023-12-20T13:39:28;2.70;;;2.08;;
80159;SDS011;69486;59.082;37.928;2023-12-20T13:41:53;2.63;;;2.22;;
80159;SDS011;69486;59.082;37.928;2023-12-20T13:44:19;2.55;;;1.90;;
80159;SDS011;69486;59.082;37.928;2023-12-20T13:46:44;2.08;;;1.98;;
80159;SDS011;69486;59.082;37.928;2023-12-20T13:49:11;2.00;;;1.90;;
80159;SDS011;69486;59.082;37.928;2023-12-20T13:51:37;2.17;;;1.98;;
80159;SDS011;69486;59.082;37.928;2023-12-20T13:54:03;2.10;;;2.00;;
80159;SDS011;69486;59.082;37.928;2023-12-20T13:56:29;2.50;;;2.08;;
80159;SDS011;69486;59.082;37.928;2023-12-20T13:58:54;2.20;;;2.03;;
80159;SDS011;69486;59.082;37.928;2023-12-20T14:01:20;1.90;;;1.80;;
80159;SDS011;69486;59.082;37.928;2023-12-20T14:03:45;3.88;;;2.30;;
80159;SDS011;69486;59.082;37.928;2023-12-20T14:06:11;3.63;;;2.58;;
80159;SDS011;69486;59.082;37.928;2023-12-20T14:08:37;3.58;;;1.90;;
80159;SDS011;69486;59.082;37.928;2023-12-20T14:11:03;2.00;;;1.90;;
80159;SDS011;69486;59.082;37.928;2023-12-20T14:13:29;2.17;;;1.95;;
80159;SDS011;69486;59.082;37.928;2023-12-20T14:15:54;3.45;;;1.80;;
80159;SDS011;69486;59.082;37.928;2023-12-20T14:18:20;1.80;;;1.70;;
80159;SDS011;69486;59.082;37.928;2023-12-20T14:20:47;1.95;;;1.85;;
80159;SDS011;69486;59.082;37.928;2023-12-20T14:23:12;2.92;;;1.92;;
80159;SDS011;69486;59.082;37.928;2023-12-20T14:25:41;2.15;;;2.00;;
80159;SDS011;69486;59.082;37.928;2023-12-20T14:28:06;2.60;;;2.00;;
80159;SDS011;69486;59.082;37.928;2023-12-20T14:30:32;1.85;;;1.80;;
80159;SDS011;69486;59.082;37.928;2023-12-20T14:32:57;2.10;;;2.00;;
80159;SDS011;69486;59.082;37.928;2023-12-20T14:35:23;1.60;;;1.60;;
80159;SDS011;69486;59.082;37.928;2023-12-20T14:37:49;2.03;;;1.90;;
80159;SDS011;69486;59.082;37.928;2023-12-20T14:40:15;1.75;;;1.65;;